createdAt,value
2022-12-29T00:01:32.361Z,3.78
2022-12-29T00:04:34.059Z,4.80
2022-12-29T00:07:35.796Z,4.55
2022-12-29T00:10:37.476Z,4.05
2022-12-29T00:13:57.745Z,5.10
2022-12-29T00:16:59.427Z,4.25
2022-12-29T00:20:19.444Z,4.43
2022-12-29T00:23:40.121Z,4.40
2022-12-29T00:27:00.358Z,5.22
2022-12-29T00:30:20.519Z,4.72
2022-12-29T00:33:45.017Z,4.72
2022-12-29T00:36:46.775Z,4.05
2022-12-29T00:40:07.048Z,4.15
2022-12-29T00:43:27.469Z,5.53
2022-12-29T00:46:29.087Z,4.35
2022-12-29T00:49:31.505Z,4.35
2022-12-29T00:52:33.246Z,3.95
2022-12-29T00:55:38.542Z,3.83
2022-12-29T00:58:40.176Z,4.75
2022-12-29T01:01:43.602Z,3.85
2022-12-29T01:04:45.275Z,4.38
2022-12-29T01:07:46.874Z,4.65
2022-12-29T01:11:02.233Z,3.88
2022-12-29T01:14:04.079Z,3.53
2022-12-29T01:17:06.355Z,4.13
2022-12-29T01:20:08.491Z,6.20
2022-12-29T01:23:10.744Z,4.00
2022-12-29T01:26:14.036Z,4.18
2022-12-29T01:29:16.356Z,4.00
2022-12-29T01:32:20.648Z,4.20
2022-12-29T01:35:22.231Z,4.72
2022-12-29T01:38:23.950Z,4.82
2022-12-29T01:41:25.797Z,4.55
2022-12-29T01:44:51.565Z,3.78
2022-12-29T01:47:58.346Z,3.55
2022-12-29T01:51:00.046Z,5.10
2022-12-29T01:54:06.720Z,3.75
2022-12-29T01:57:14.490Z,4.57
2022-12-29T02:00:16.779Z,4.40
2022-12-29T02:03:25.462Z,4.65
2022-12-29T02:06:39.226Z,4.38
2022-12-29T02:09:42.215Z,5.25
2022-12-29T02:12:43.976Z,4.57
2022-12-29T02:16:07.940Z,4.43
2022-12-29T02:19:40.712Z,4.07
2022-12-29T02:23:00.628Z,4.88
2022-12-29T02:26:17.161Z,5.93
2022-12-29T02:29:44.954Z,4.50
2022-12-29T02:32:59.713Z,5.20
2022-12-29T02:36:21.762Z,3.83
2022-12-29T02:39:35.803Z,4.45
2022-12-29T02:42:45.476Z,4.40
2022-12-29T02:45:54.763Z,5.63
2022-12-29T02:49:17.097Z,6.55
2022-12-29T02:52:28.758Z,4.82
2022-12-29T02:55:30.343Z,4.15
2022-12-29T02:58:31.979Z,3.72
2022-12-29T03:02:18.011Z,6.43
2022-12-29T03:05:34.626Z,4.38
2022-12-29T03:08:46.199Z,4.87
2022-12-29T03:12:10.135Z,5.38
2022-12-29T03:15:37.652Z,5.15
2022-12-29T03:18:56.201Z,5.82
2022-12-29T03:22:21.313Z,4.47
2022-12-29T03:25:36.833Z,4.50
2022-12-29T03:28:48.625Z,4.95
2022-12-29T03:31:56.617Z,5.20
2022-12-29T03:35:00.002Z,4.20
2022-12-29T03:38:19.858Z,6.07
2022-12-29T03:41:29.772Z,4.63
2022-12-29T03:44:40.246Z,4.13
2022-12-29T03:47:42.936Z,5.05
2022-12-29T03:50:44.861Z,4.78
2022-12-29T03:53:46.671Z,5.32
2022-12-29T03:56:48.321Z,4.72
2022-12-29T03:59:54.622Z,4.65
2022-12-29T04:02:56.454Z,6.18
2022-12-29T04:05:58.984Z,4.95
2022-12-29T04:09:01.278Z,4.50
2022-12-29T04:12:06.362Z,5.22
2022-12-29T04:15:10.769Z,4.95
2022-12-29T04:18:13.612Z,4.55
2022-12-29T04:21:15.633Z,5.63
2022-12-29T04:24:18.934Z,5.72
2022-12-29T04:27:23.782Z,4.72
2022-12-29T04:30:54.205Z,5.10
2022-12-29T04:34:00.838Z,5.00
2022-12-29T04:37:03.225Z,5.85
2022-12-29T04:40:05.529Z,4.10
2022-12-29T04:43:07.993Z,7.20
2022-12-29T04:46:29.831Z,5.38
2022-12-29T04:49:34.676Z,5.28
2022-12-29T04:52:46.322Z,5.10
2022-12-29T04:55:51.306Z,5.55
2022-12-29T04:58:53.115Z,4.90
2022-12-29T05:01:56.587Z,4.75
2022-12-29T05:04:58.868Z,5.03
2022-12-29T05:08:01.488Z,5.90
2022-12-29T05:11:03.162Z,4.90
2022-12-29T05:14:04.891Z,5.65
2022-12-29T05:17:07.536Z,4.93
2022-12-29T05:20:10.044Z,5.25
2022-12-29T05:23:12.533Z,5.60
2022-12-29T05:26:14.846Z,5.78
2022-12-29T05:29:32.191Z,4.90
2022-12-29T05:32:34.129Z,5.18
2022-12-29T05:35:35.897Z,6.20
2022-12-29T05:38:38.039Z,4.65
2022-12-29T05:41:41.342Z,5.85
2022-12-29T05:45:03.554Z,5.75
2022-12-29T05:48:21.838Z,5.18
2022-12-29T05:51:49.081Z,5.22
2022-12-29T05:54:50.802Z,4.80
2022-12-29T05:57:56.015Z,5.40
2022-12-29T06:00:57.894Z,6.05
2022-12-29T06:03:59.841Z,5.53
2022-12-29T06:07:01.575Z,5.03
2022-12-29T06:10:17.742Z,6.28
2022-12-29T06:13:28.484Z,5.28
2022-12-29T06:16:31.123Z,5.32
2022-12-29T06:19:35.683Z,5.70
2022-12-29T06:22:38.019Z,4.82
2022-12-29T06:25:40.134Z,4.90
2022-12-29T06:28:42.156Z,5.43
2022-12-29T06:31:46.697Z,5.78
2022-12-29T06:34:48.562Z,4.93
2022-12-29T06:37:50.339Z,5.63
2022-12-29T06:40:51.927Z,5.28
2022-12-29T06:44:12.086Z,4.50
2022-12-29T06:47:37.072Z,6.03
2022-12-29T06:50:38.687Z,4.82
2022-12-29T06:53:40.328Z,5.03
2022-12-29T06:56:42.128Z,4.80
2022-12-29T06:59:44.214Z,5.50
2022-12-29T07:02:45.926Z,6.85
2022-12-29T07:05:47.562Z,4.60
2022-12-29T07:08:49.139Z,5.82
2022-12-29T07:11:51.372Z,4.97
2022-12-29T07:14:52.929Z,4.70
2022-12-29T07:17:54.485Z,5.10
2022-12-29T07:20:56.047Z,5.43
2022-12-29T07:23:57.755Z,4.97
2022-12-29T07:26:59.427Z,5.25
2022-12-29T07:30:00.980Z,5.05
2022-12-29T07:33:02.561Z,4.93
2022-12-29T07:36:04.386Z,4.80
2022-12-29T07:39:06.345Z,5.43
2022-12-29T07:42:07.913Z,5.57
2022-12-29T07:45:17.211Z,6.05
2022-12-29T07:48:38.260Z,5.38
2022-12-29T07:51:39.770Z,6.15
2022-12-29T07:54:41.591Z,5.15
2022-12-29T07:57:43.533Z,6.10
2022-12-29T08:00:45.193Z,6.38
2022-12-29T08:03:48.554Z,4.82
2022-12-29T08:06:52.989Z,5.85
2022-12-29T08:09:54.687Z,5.68
2022-12-29T08:12:56.497Z,5.05
2022-12-29T08:16:01.303Z,4.97
2022-12-29T08:19:03.083Z,5.40
2022-12-29T08:22:04.735Z,5.45
2022-12-29T08:25:06.607Z,6.65
2022-12-29T08:28:08.175Z,5.00
2022-12-29T08:31:10.575Z,5.35
2022-12-29T08:34:12.192Z,4.45
2022-12-29T08:37:13.770Z,5.10
2022-12-29T08:40:15.401Z,5.47
2022-12-29T08:43:18.684Z,5.05
2022-12-29T08:46:20.501Z,4.90
2022-12-29T08:49:22.307Z,4.70
2022-12-29T08:52:23.985Z,7.45
2022-12-29T08:55:25.830Z,5.50
2022-12-29T08:58:29.124Z,5.25
2022-12-29T09:01:32.024Z,8.35
2022-12-29T09:04:33.963Z,6.43
2022-12-29T09:07:35.605Z,5.13
2022-12-29T09:10:37.137Z,6.05
2022-12-29T09:13:38.785Z,5.35
2022-12-29T09:16:40.676Z,5.20
2022-12-29T09:19:45.129Z,5.85
2022-12-29T09:22:47.825Z,5.22
2022-12-29T09:25:49.372Z,5.72
2022-12-29T09:28:51.037Z,5.13
2022-12-29T09:31:53.261Z,5.13
2022-12-29T09:34:54.884Z,4.50
2022-12-29T09:37:56.461Z,5.50
2022-12-29T09:41:12.348Z,5.63
2022-12-29T09:44:32.547Z,4.73
2022-12-29T09:47:34.202Z,5.45
2022-12-29T09:50:38.248Z,4.80
2022-12-29T09:53:45.475Z,5.47
2022-12-29T09:56:48.350Z,5.57
2022-12-29T09:59:53.507Z,5.97
2022-12-29T10:03:15.862Z,4.93
2022-12-29T10:07:11.397Z,5.72
2022-12-29T10:10:35.347Z,5.25
2022-12-29T10:14:16.451Z,5.40
2022-12-29T10:17:42.119Z,6.78
2022-12-29T10:20:59.461Z,5.90
2022-12-29T10:24:05.696Z,5.65
2022-12-29T10:27:13.144Z,7.38
2022-12-29T10:30:15.742Z,6.22
2022-12-29T10:33:24.624Z,5.47
2022-12-29T10:36:48.370Z,5.18
2022-12-29T10:39:55.183Z,4.90
2022-12-29T10:42:59.051Z,6.40
2022-12-29T10:46:10.510Z,4.75
2022-12-29T10:49:22.257Z,7.50
2022-12-29T10:52:26.131Z,4.93
2022-12-29T10:55:33.448Z,5.53
2022-12-29T10:58:35.146Z,5.85
2022-12-29T11:01:47.408Z,5.35
2022-12-29T11:04:59.548Z,5.35
2022-12-29T11:08:05.765Z,4.60
2022-12-29T11:11:10.040Z,6.05
2022-12-29T11:14:14.178Z,5.60
2022-12-29T11:17:18.209Z,5.43
2022-12-29T11:20:29.351Z,4.70
2022-12-29T11:23:41.276Z,4.60
2022-12-29T11:26:45.699Z,4.93
2022-12-29T11:29:47.790Z,4.60
2022-12-29T11:32:54.051Z,4.95
2022-12-29T11:36:00.473Z,5.10
2022-12-29T11:42:05.005Z,6.30
2022-12-29T11:45:28.631Z,5.85
2022-12-29T11:48:34.360Z,5.70
2022-12-29T11:51:57.890Z,5.20
2022-12-29T11:55:02.149Z,5.78
2022-12-29T11:58:05.497Z,5.20
2022-12-29T12:01:16.026Z,5.30
2022-12-29T12:04:20.658Z,5.18
2022-12-29T12:07:33.417Z,5.03
2022-12-29T12:10:51.503Z,4.82
2022-12-29T12:14:05.587Z,4.57
2022-12-29T12:17:52.714Z,4.80
2022-12-29T12:24:20.568Z,4.68
2022-12-29T12:27:30.303Z,5.93
2022-12-29T12:30:41.766Z,5.10
2022-12-29T12:33:48.556Z,5.35
2022-12-29T12:36:56.216Z,5.57
2022-12-29T12:40:03.653Z,4.97
2022-12-29T12:43:28.496Z,5.68
2022-12-29T12:47:02.430Z,5.07
2022-12-29T12:50:21.355Z,5.45
2022-12-29T12:53:38.849Z,5.72
2022-12-29T12:56:55.624Z,3.85
2022-12-29T13:00:05.898Z,5.55
2022-12-29T13:03:31.643Z,5.43
2022-12-29T13:07:01.099Z,5.45
2022-12-29T13:10:09.988Z,4.63
2022-12-29T13:13:14.633Z,6.45
2022-12-29T13:16:25.666Z,5.30
2022-12-29T13:19:55.056Z,4.82
2022-12-29T13:23:05.253Z,5.25
2022-12-29T13:26:24.674Z,5.07
2022-12-29T13:29:52.691Z,5.90
2022-12-29T13:33:21.162Z,5.07
2022-12-29T13:36:38.645Z,5.95
2022-12-29T13:39:46.786Z,5.18
2022-12-29T13:42:48.409Z,6.22
2022-12-29T13:46:23.286Z,5.95
2022-12-29T13:49:25.607Z,4.57
2022-12-29T13:52:52.537Z,5.10
2022-12-29T13:56:21.562Z,6.90
2022-12-29T13:59:48.211Z,5.30
2022-12-29T14:03:30.614Z,5.30
2022-12-29T14:06:41.393Z,6.18
2022-12-29T14:09:52.451Z,7.53
2022-12-29T14:13:03.297Z,5.38
2022-12-29T14:16:05.249Z,5.35
2022-12-29T14:19:17.755Z,5.18
2022-12-29T14:22:33.256Z,5.30
2022-12-29T14:25:53.859Z,4.95
2022-12-29T14:29:01.420Z,5.15
2022-12-29T14:32:21.524Z,5.55
2022-12-29T14:38:48.757Z,6.28
2022-12-29T14:42:13.289Z,5.18
2022-12-29T14:45:14.783Z,6.25
2022-12-29T14:48:39.608Z,5.57
2022-12-29T14:51:41.298Z,5.53
2022-12-29T14:54:46.544Z,8.35
2022-12-29T14:57:52.135Z,5.18
2022-12-29T15:04:34.204Z,3.35
2022-12-29T15:07:36.020Z,5.10
2022-12-29T15:10:52.649Z,4.03
2022-12-29T15:13:54.301Z,7.30
2022-12-29T15:16:55.929Z,4.95
2022-12-29T15:19:59.741Z,4.03
2022-12-29T15:23:12.007Z,4.90
2022-12-29T15:26:16.101Z,6.43
2022-12-29T15:29:57.127Z,6.20
2022-12-29T15:32:58.729Z,5.55
2022-12-29T15:36:04.606Z,6.57
2022-12-29T15:39:27.943Z,6.10
2022-12-29T15:42:57.649Z,5.10
2022-12-29T15:46:01.971Z,5.10
2022-12-29T15:49:07.353Z,4.70
2022-12-29T15:52:10.044Z,4.55
2022-12-29T15:55:22.060Z,6.05
2022-12-29T15:58:29.950Z,5.18
2022-12-29T16:01:36.950Z,4.78
2022-12-29T16:05:01.497Z,5.13
2022-12-29T16:08:02.211Z,5.47
2022-12-29T16:11:26.280Z,4.65
2022-12-29T16:14:38.088Z,6.65
2022-12-29T16:17:53.783Z,6.80
2022-12-29T16:20:57.319Z,7.15
2022-12-29T16:24:03.085Z,8.18
2022-12-29T16:27:23.213Z,5.57
2022-12-29T16:30:33.561Z,7.32
2022-12-29T16:33:54.031Z,6.80
2022-12-29T16:37:01.623Z,9.40
2022-12-29T16:40:39.409Z,7.95
2022-12-29T16:46:57.090Z,5.90
2022-12-29T16:50:13.308Z,7.30
2022-12-29T16:53:25.984Z,6.68
2022-12-29T16:56:31.641Z,6.82
2022-12-29T16:59:36.557Z,7.77
2022-12-29T17:02:45.889Z,13.07
2022-12-29T17:05:52.671Z,7.72
2022-12-29T17:08:58.296Z,7.95
2022-12-29T17:12:10.920Z,7.45
2022-12-29T17:15:35.282Z,8.40
2022-12-29T17:18:37.320Z,5.65
2022-12-29T17:21:38.974Z,7.80
2022-12-29T17:24:40.558Z,7.57
2022-12-29T17:27:45.213Z,6.25
2022-12-29T17:30:47.759Z,6.47
2022-12-29T17:33:49.574Z,6.43
2022-12-29T17:36:51.169Z,11.25
2022-12-29T17:39:52.720Z,9.13
2022-12-29T17:42:56.373Z,6.60
2022-12-29T17:45:58.814Z,11.13
2022-12-29T17:49:01.056Z,9.10
2022-12-29T17:52:03.344Z,11.52
2022-12-29T17:55:05.207Z,5.47
2022-12-29T17:58:28.061Z,9.48
2022-12-29T18:01:35.418Z,22.75
2022-12-29T18:04:37.786Z,20.80
2022-12-29T18:07:39.431Z,9.63
2022-12-29T18:10:41.857Z,9.05
2022-12-29T18:13:46.648Z,9.40
2022-12-29T18:16:48.953Z,10.52
2022-12-29T18:19:55.542Z,11.30
2022-12-29T18:26:12.667Z,8.55
2022-12-29T18:29:14.270Z,7.07
2022-12-29T18:32:17.562Z,7.25
2022-12-29T18:35:40.585Z,5.47
2022-12-29T18:38:43.683Z,4.40
2022-12-29T18:41:46.571Z,5.13
2022-12-29T18:44:48.371Z,4.20
2022-12-29T18:47:54.600Z,5.07
2022-12-29T18:50:56.908Z,3.78
2022-12-29T18:54:01.027Z,3.30
2022-12-29T18:57:02.850Z,4.43
2022-12-29T19:00:05.048Z,5.63
2022-12-29T19:03:06.980Z,4.93
2022-12-29T19:06:08.845Z,4.90
2022-12-29T19:09:10.887Z,4.47
2022-12-29T19:12:16.723Z,4.20
2022-12-29T19:15:30.840Z,5.07
2022-12-29T19:19:00.909Z,4.28
2022-12-29T19:22:03.692Z,4.68
2022-12-29T19:25:06.817Z,4.85
2022-12-29T19:28:17.761Z,4.63
2022-12-29T19:31:21.612Z,4.47
2022-12-29T19:34:23.769Z,4.22
2022-12-29T19:37:25.493Z,3.95
2022-12-29T19:40:27.375Z,6.53
2022-12-29T19:43:29.066Z,11.48
2022-12-29T19:46:30.821Z,6.78
2022-12-29T19:49:33.217Z,7.32
2022-12-29T19:52:36.460Z,9.27
2022-12-29T19:55:47.052Z,6.93
2022-12-29T19:58:53.858Z,8.30
2022-12-29T20:02:00.956Z,7.00
2022-12-29T20:05:09.248Z,7.28
2022-12-29T20:08:11.049Z,7.47
2022-12-29T20:11:20.440Z,8.05
2022-12-29T20:14:22.573Z,5.45
2022-12-29T20:18:02.015Z,5.60
2022-12-29T20:20:53.997Z,5.53
2022-12-29T20:24:39.130Z,4.18
2022-12-29T20:27:51.729Z,4.70
2022-12-29T20:31:33.321Z,4.82
2022-12-29T20:35:52.359Z,4.18
2022-12-29T20:39:44.516Z,4.55
2022-12-29T20:43:32.787Z,4.40
2022-12-29T20:46:54.269Z,3.92
2022-12-29T20:50:03.717Z,3.42
2022-12-29T20:53:32.185Z,4.05
2022-12-29T20:57:07.744Z,4.85
2022-12-29T21:00:10.872Z,3.58
2022-12-29T21:03:12.803Z,3.53
2022-12-29T21:06:16.497Z,4.15
2022-12-29T21:09:18.239Z,3.50
2022-12-29T21:12:19.983Z,4.28
2022-12-29T21:15:21.728Z,2.95
2022-12-29T21:18:23.556Z,3.60
2022-12-29T21:21:25.968Z,3.17
2022-12-29T21:24:27.576Z,3.28
2022-12-29T21:27:29.274Z,2.53
2022-12-29T21:30:30.872Z,2.83
2022-12-29T21:33:33.069Z,2.67
2022-12-29T21:36:34.908Z,3.40
2022-12-29T21:39:37.062Z,3.05
2022-12-29T21:42:38.635Z,3.28
2022-12-29T21:45:40.201Z,3.45
2022-12-29T21:48:41.716Z,3.92
2022-12-29T21:51:54.114Z,3.47
2022-12-29T21:55:01.881Z,2.67
2022-12-29T21:58:22.019Z,2.88
2022-12-29T22:01:43.895Z,2.75
2022-12-29T22:05:04.349Z,3.10
2022-12-29T22:08:24.685Z,3.78
2022-12-29T22:11:44.957Z,3.65
2022-12-29T22:14:46.543Z,2.80
2022-12-29T22:17:50.025Z,3.22
2022-12-29T22:20:51.646Z,2.75
2022-12-29T22:23:53.255Z,2.45
2022-12-29T22:26:54.866Z,2.58
2022-12-29T22:29:56.731Z,3.38
2022-12-29T22:32:59.116Z,3.17
2022-12-29T22:36:00.734Z,3.63
2022-12-29T22:39:02.337Z,2.80
2022-12-29T22:42:05.038Z,2.55
2022-12-29T22:45:07.625Z,2.88
2022-12-29T22:48:09.266Z,2.88
2022-12-29T22:51:10.814Z,3.45
2022-12-29T22:54:12.393Z,3.50
2022-12-29T22:57:14.066Z,3.15
2022-12-29T23:00:15.828Z,2.70
2022-12-29T23:03:17.861Z,2.08
2022-12-29T23:06:19.611Z,3.42
2022-12-29T23:09:22.973Z,3.47
2022-12-29T23:12:24.634Z,3.05
2022-12-29T23:15:26.198Z,2.75
2022-12-29T23:18:28.010Z,3.70
2022-12-29T23:21:29.604Z,4.10
2022-12-29T23:24:31.198Z,4.10
2022-12-29T23:27:32.833Z,3.47
2022-12-29T23:30:35.224Z,2.95
2022-12-29T23:33:37.195Z,2.97
2022-12-29T23:36:39.385Z,3.30
2022-12-29T23:39:41.119Z,2.97
2022-12-29T23:42:42.802Z,3.30
2022-12-29T23:45:50.530Z,2.85
2022-12-29T23:48:53.096Z,2.80
2022-12-29T23:51:54.696Z,2.38
2022-12-29T23:54:56.233Z,3.28
2022-12-29T23:57:57.776Z,2.97
